• Join FlightAware (Why Join?)
  • Login
  • US Flag 
11:49PM EDT


 

Airport Tracker/Info


-or-


 

Live Flight TrackerFlight Track Log ✈ N476DS ✈ 27-May-2013 ✈ SBCB / CFB - KCDW

Flight Track Log - Related Links

Times and Time Zones

All times are in EDT time to prevent confusion due to time zone crossing. See the N476DS flight status page for this flight to view local times or setup timezone preferences in your user account.

Time Position Orientation Groundspeed Altitude Reporting Facility
EDT Latitude Longitude Course Direction KTS MPH feet Rate Location/Type
03:04PM -22.4100 -42.3360 335° Northwest  Level Estimated
03:05PM -22.3736 -42.3545 335° Northwest  Level Estimated
03:06PM -22.3374 -42.3729 335° Northwest  Level Estimated
03:07PM -22.3012 -42.3914 335° Northwest  Level Estimated
03:08PM -22.2649 -42.4098 335° Northwest  Level Estimated
03:09PM -22.2287 -42.4282 335° Northwest  Level Estimated
03:10PM -22.1924 -42.4466 335° Northwest  Level Estimated
03:11PM -22.1562 -42.4650 335° Northwest  Level Estimated
03:12PM -22.1200 -42.4834 335° Northwest  Level Estimated
03:13PM -22.0837 -42.5017 335° Northwest  Level Estimated
03:14PM -22.0475 -42.5201 335° Northwest  Level Estimated
03:15PM -22.0112 -42.5384 335° Northwest  Level Estimated
03:16PM -21.9750 -42.5568 335° Northwest  Level Estimated
03:17PM -21.9387 -42.5751 335° Northwest  Level Estimated
03:18PM -21.9024 -42.5935 335° Northwest  Level Estimated
03:19PM -21.8662 -42.6118 335° Northwest  Level Estimated
03:20PM -21.8299 -42.6301 335° Northwest  Level Estimated
03:21PM -21.7937 -42.6484 335° Northwest  Level Estimated
03:22PM -21.7574 -42.6667 335° Northwest  Level Estimated
03:23PM -21.7211 -42.6850 335° Northwest  Level Estimated
03:24PM -21.6849 -42.7032 335° Northwest  Level Estimated
03:25PM -21.6486 -42.7215 335° Northwest  Level Estimated
03:26PM -21.6123 -42.7397 335° Northwest  Level Estimated
03:27PM -21.5760 -42.7580 335° Northwest  Level Estimated
03:28PM -21.5397 -42.7762 335° Northwest  Level Estimated
03:29PM -21.5035 -42.7944 335° Northwest  Level Estimated
03:30PM -21.4672 -42.8127 335° Northwest  Level Estimated
03:31PM -21.4309 -42.8309 335° Northwest  Level Estimated
03:32PM -21.3946 -42.8491 335° Northwest  Level Estimated
03:33PM -21.3583 -42.8673 335° Northwest  Level Estimated
03:34PM -21.3220 -42.8854 335° Northwest  Level Estimated
03:35PM -21.2857 -42.9036 335° Northwest  Level Estimated
03:36PM -21.2495 -42.9218 335° Northwest  Level Estimated
03:37PM -21.2132 -42.9399 335° Northwest  Level Estimated
03:38PM -21.1769 -42.9581 335° Northwest  Level Estimated
03:39PM -21.1406 -42.9762 335° Northwest  Level Estimated
03:40PM -21.1043 -42.9943 335° Northwest  Level Estimated
03:41PM -21.0680 -43.0125 335° Northwest  Level Estimated
03:42PM -21.0317 -43.0306 335° Northwest  Level Estimated
03:43PM -20.9953 -43.0487 335° Northwest  Level Estimated
03:44PM -20.9590 -43.0668 335° Northwest  Level Estimated
03:45PM -20.9227 -43.0848 335° Northwest  Level Estimated
03:46PM -20.8864 -43.1029 335° Northwest  Level Estimated
03:47PM -20.8501 -43.1210 335° Northwest  Level Estimated
03:48PM -20.8138 -43.1390 335° Northwest  Level Estimated
03:49PM -20.7775 -43.1571 335° Northwest  Level Estimated
03:50PM -20.7411 -43.1751 335° Northwest  Level Estimated
03:51PM -20.7048 -43.1931 335° Northwest  Level Estimated
03:52PM -20.6685 -43.2112 335° Northwest  Level Estimated
03:53PM -20.6322 -43.2292 335° Northwest  Level Estimated
03:54PM -20.5958 -43.2472 335° Northwest  Level Estimated
03:55PM -20.5595 -43.2652 335° Northwest  Level Estimated
03:56PM -20.5232 -43.2832 335° Northwest  Level Estimated
03:57PM -20.4869 -43.3012 335° Northwest  Level Estimated
03:58PM -20.4505 -43.3191 335° Northwest  Level Estimated
03:59PM -20.4142 -43.3371 335° Northwest  Level Estimated
04:00PM -20.3778 -43.3550 335° Northwest  Level Estimated
04:01PM -20.3415 -43.3730 335° Northwest  Level Estimated
04:02PM -20.3052 -43.3909 335° Northwest  Level Estimated
04:03PM -20.2688 -43.4088 335° Northwest  Level Estimated
04:04PM -20.2325 -43.4268 335° Northwest  Level Estimated
04:05PM -20.1961 -43.4447 335° Northwest  Level Estimated
04:06PM -20.1598 -43.4626 335° Northwest  Level Estimated
04:07PM -20.1234 -43.4805 335° Northwest  Level Estimated
04:08PM -20.0871 -43.4983 335° Northwest  Level Estimated
04:09PM -20.0507 -43.5162 335° Northwest  Level Estimated
04:10PM -20.0144 -43.5341 335° Northwest  Level Estimated
04:11PM -19.9780 -43.5520 335° Northwest  Level Estimated
04:12PM -19.9416 -43.5698 335° Northwest  Level Estimated
04:13PM -19.9053 -43.5877 335° Northwest  Level Estimated
04:14PM -19.8689 -43.6055 335° Northwest  Level Estimated
04:15PM -19.8325 -43.6233 335° Northwest  Level Estimated
04:16PM -19.7962 -43.6411 335° Northwest  Level Estimated
04:17PM -19.7598 -43.6590 335° Northwest  Level Estimated
04:18PM -19.7234 -43.6768 335° Northwest  Level Estimated
04:19PM -19.6871 -43.6945 335° Northwest  Level Estimated
04:20PM -19.6507 -43.7123 335° Northwest  Level Estimated
04:21PM -19.6143 -43.7301 335° Northwest  Level Estimated
04:22PM -19.5779 -43.7479 335° Northwest  Level Estimated
04:23PM -19.5415 -43.7657 335° Northwest  Level Estimated
04:24PM -19.5052 -43.7834 335° Northwest  Level Estimated
04:25PM -19.4688 -43.8012 335° Northwest  Level Estimated
04:26PM -19.4324 -43.8189 335° Northwest  Level Estimated
04:27PM -19.3960 -43.8366 335° Northwest  Level Estimated
04:28PM -19.3596 -43.8544 335° Northwest  Level Estimated
04:29PM -19.3232 -43.8721 335° Northwest  Level Estimated
04:30PM -19.2868 -43.8898 335° Northwest  Level Estimated
04:31PM -19.2505 -43.9075 335° Northwest  Level Estimated
04:32PM -19.2141 -43.9252 335° Northwest  Level Estimated
04:33PM -19.1777 -43.9428 335° Northwest  Level Estimated
04:34PM -19.1413 -43.9605 335° Northwest  Level Estimated
04:35PM -19.1049 -43.9782 335° Northwest  Level Estimated
04:36PM -19.0685 -43.9959 335° Northwest  Level Estimated
04:37PM -19.0320 -44.0135 335° Northwest  Level Estimated
04:38PM -18.9956 -44.0312 335° Northwest  Level Estimated
04:39PM -18.9592 -44.0488 335° Northwest  Level Estimated
04:40PM -18.9228 -44.0664 335° Northwest  Level Estimated
04:41PM -18.8864 -44.0840 335° Northwest  Level Estimated
04:42PM -18.8500 -44.1017 335° Northwest  Level Estimated
04:43PM -18.8136 -44.1193 335° Northwest  Level Estimated
04:44PM -18.7772 -44.1369 335° Northwest  Level Estimated
04:45PM -18.7407 -44.1545 335° Northwest  Level Estimated
04:46PM -18.7043 -44.1720 335° Northwest  Level Estimated
04:47PM -18.6679 -44.1896 335° Northwest  Level Estimated
04:48PM -18.6315 -44.2072 335° Northwest  Level Estimated
04:49PM -18.5951 -44.2248 335° Northwest  Level Estimated
04:50PM -18.5586 -44.2423 335° Northwest  Level Estimated
04:51PM -18.5222 -44.2598 335° Northwest  Level Estimated
04:52PM -18.4858 -44.2774 335° Northwest  Level Estimated
04:53PM -18.4494 -44.2949 335° Northwest  Level Estimated
04:54PM -18.4129 -44.3124 335° Northwest  Level Estimated
04:55PM -18.3765 -44.3300 335° Northwest  Level Estimated
04:56PM -18.3401 -44.3475 335° Northwest  Level Estimated
04:57PM -18.3036 -44.3650 335° Northwest  Level Estimated
04:58PM -18.2672 -44.3825 335° Northwest  Level Estimated
04:59PM -18.2307 -44.3999 335° Northwest  Level Estimated
05:00PM -18.1943 -44.4174 336° Northwest  Level Estimated
05:01PM -18.1579 -44.4349 336° Northwest  Level Estimated
05:02PM -18.1214 -44.4524 336° Northwest  Level Estimated
05:03PM -18.0850 -44.4698 336° Northwest  Level Estimated
05:04PM -18.0485 -44.4873 336° Northwest  Level Estimated
05:05PM -18.0121 -44.5047 336° Northwest  Level Estimated
05:06PM -17.9756 -44.5222 336° Northwest  Level Estimated
05:07PM -17.9392 -44.5396 336° Northwest  Level Estimated
05:08PM -17.9027 -44.5570 336° Northwest  Level Estimated
05:09PM -17.8663 -44.5744 336° Northwest  Level Estimated
05:10PM -17.8298 -44.5918 336° Northwest  Level Estimated
05:11PM -17.7933 -44.6092 336° Northwest  Level Estimated
05:12PM -17.7569 -44.6266 336° Northwest  Level Estimated
05:13PM -17.7204 -44.6440 336° Northwest  Level Estimated
05:14PM -17.6840 -44.6614 336° Northwest  Level Estimated
05:15PM -17.6475 -44.6788 336° Northwest  Level Estimated
05:16PM -17.6110 -44.6961 336° Northwest  Level Estimated
05:17PM -17.5746 -44.7135 336° Northwest  Level Estimated
05:18PM -17.5381 -44.7308 336° Northwest  Level Estimated
05:19PM -17.5016 -44.7482 336° Northwest  Level Estimated
05:20PM -17.4652 -44.7655 336° Northwest  Level Estimated
05:21PM -17.4287 -44.7828 336° Northwest  Level Estimated
05:22PM -17.3922 -44.8002 336° Northwest  Level Estimated
05:23PM -17.3557 -44.8175 336° Northwest  Level Estimated
05:24PM -17.3192 -44.8348 336° Northwest  Level Estimated
05:25PM -17.2828 -44.8521 336° Northwest  Level Estimated
05:26PM -17.2463 -44.8694 336° Northwest  Level Estimated
05:27PM -17.2098 -44.8867 336° Northwest  Level Estimated
05:28PM -17.1733 -44.9040 336° Northwest  Level Estimated
05:29PM -17.1368 -44.9212 336° Northwest  Level Estimated
05:30PM -17.1003 -44.9385 336° Northwest  Level Estimated
05:31PM -17.0639 -44.9558 336° Northwest  Level Estimated
05:32PM -17.0274 -44.9730 336° Northwest  Level Estimated
05:33PM -16.9909 -44.9903 336° Northwest  Level Estimated
05:34PM -16.9544 -45.0075 336° Northwest  Level Estimated
05:35PM -16.9179 -45.0247 336° Northwest  Level Estimated
05:36PM -16.8814 -45.0420 336° Northwest  Level Estimated
05:37PM -16.8449 -45.0592 336° Northwest  Level Estimated
05:38PM -16.8084 -45.0764 336° Northwest  Level Estimated
05:39PM -16.7719 -45.0936 336° Northwest  Level Estimated
05:40PM -16.7354 -45.1108 336° Northwest  Level Estimated